サル島 の空港の天気 - METARとTAF

アミルカル・カブラル国際空港 ( GVAC / SID ) - カーボベルデ サル島
飛行場実況気象(Metar)
観測時間06/17 18:00 CVT (06/17 19:00 UTC)
風向・風速北北東 10m/s
視程10km以上
天気現象
少しの雲 雲底高度 400m
気温26℃
湿度65%
気圧1016hPa
METARGVAC 171900Z 03019KT 9999 FEW013 26/19 Q1016 NOSIG
過去の天気等 Google飛行場航空写真 Wunderground天気予報

過去48時間のMETAR

飛行場予報(TAF)
発表時間: 6/17 16:00 CVT (6/17 17:00 UTC)
予報対象時間: 17日17時 CVT ~ 18日23時 CVT
風向・風速北東 10m/s
視程10km以上
少しの雲 雲底高度 430m
18日1時 CVT ~ 18日5時 CVT に 確率 30% で一時的に
風向・風速北東 5m/s
TAF GVAC 171700Z 1718/1824 04020KT 9999 FEW014
PROB30 TEMPO 1802/1806 04010KT